Time;durP1;ratioP1;P1;durP2;ratioP2;P2;SDS_P1;SDS_P2;PMS_P1;PMS_P2;Temp;Humidity;BMP_temperature;BMP_pressure;BME280_temperature;BME280_humidity;BME280_pressure;Samples;Min_cycle;Max_cycle;Signal;HPM_P1;HPM_P2
2021/07/25 00:01:18;;;;;;;6.15;5.47;;;22.20;1.00;;;;;;5109218;28;20039;-82
2021/07/25 00:03:44;;;;;;;8.15;6.20;;;22.20;1.00;;;;;;5114145;28;20114;-82
2021/07/25 00:06:16;;;;;;;7.82;6.32;;;22.10;1.00;;;;;;5114103;28;20024;-82
2021/07/25 00:08:42;;;;;;;7.93;6.40;;;22.10;1.00;;;;;;5113980;28;20483;-82
2021/07/25 00:11:08;;;;;;;9.57;6.63;;;22.00;1.00;;;;;;5114656;27;20028;-82
2021/07/25 00:13:37;;;;;;;6.60;5.93;;;21.90;1.00;;;;;;5110557;28;20039;-82
2021/07/25 00:16:03;;;;;;;7.97;6.25;;;21.80;1.00;;;;;;5130238;27;20044;-82
2021/07/25 00:18:29;;;;;;;7.60;6.30;;;21.80;1.00;;;;;;5118921;27;20032;-82
2021/07/25 00:20:56;;;;;;;8.65;6.20;;;21.80;1.00;;;;;;5117579;27;20574;-82
2021/07/25 00:23:24;;;;;;;8.15;6.22;;;21.80;1.00;;;;;;5117703;27;20465;-82
2021/07/25 00:25:51;;;;;;;7.65;6.15;;;21.80;1.00;;;;;;5114113;27;20080;-82
2021/07/25 00:28:18;;;;;;;9.65;6.05;;;21.70;1.00;;;;;;5122428;27;20101;-82
2021/07/25 00:30:44;;;;;;;6.97;6.13;;;21.70;1.00;;;;;;5117996;27;20031;-82
2021/07/25 00:33:10;;;;;;;8.23;5.63;;;21.70;1.00;;;;;;5114571;27;20106;-82
2021/07/25 00:35:36;;;;;;;7.15;5.85;;;21.70;1.00;;;;;;5115535;27;20028;-82
2021/07/25 00:38:02;;;;;;;7.25;5.80;;;21.70;1.00;;;;;;5117712;27;20039;-82
2021/07/25 00:40:43;;;;;;;8.05;6.22;;;21.70;1.00;;;;;;5113010;27;20108;-82
2021/07/25 00:43:09;;;;;;;8.00;5.72;;;21.70;1.00;;;;;;5096655;28;20084;-82
2021/07/25 00:45:37;;;;;;;6.45;5.50;;;21.80;1.00;;;;;;5114187;27;20023;-82
2021/07/25 00:48:04;;;;;;;8.55;6.10;;;21.80;1.00;;;;;;5117455;27;20028;-82
2021/07/25 00:50:29;;;;;;;8.73;6.00;;;21.80;1.00;;;;;;5114909;27;20040;-82
2021/07/25 00:52:56;;;;;;;7.75;5.85;;;21.60;1.00;;;;;;5117021;27;20083;-82
2021/07/25 00:55:21;;;;;;;7.57;5.90;;;21.60;1.00;;;;;;5110908;27;20028;-82
2021/07/25 00:57:48;;;;;;;7.55;5.75;;;21.70;1.00;;;;;;5116061;27;20046;-82
2021/07/25 01:00:14;;;;;;;7.30;6.22;;;21.70;1.00;;;;;;5117384;27;20028;-82
2021/07/25 01:03:12;;;;;;;6.22;5.57;;;21.70;1.00;;;;;;5116467;27;20498;-82
2021/07/25 01:05:44;;;;;;;6.40;5.20;;;21.70;1.00;;;;;;5115088;27;20047;-82
2021/07/25 01:08:11;;;;;;;9.13;5.55;;;21.60;1.00;;;;;;5116664;27;20072;-82
2021/07/25 01:10:39;;;;;;;8.38;5.82;;;21.70;1.00;;;;;;5112891;27;20147;-81
2021/07/25 01:13:11;;;;;;;7.63;5.65;;;21.70;1.00;;;;;;5112255;27;20432;-82
2021/07/25 01:15:40;;;;;;;10.95;6.03;;;21.60;1.00;;;;;;5113626;27;20434;-82
2021/07/25 01:18:05;;;;;;;6.50;5.65;;;21.60;1.00;;;;;;5115182;27;20035;-82
2021/07/25 01:20:31;;;;;;;7.80;5.80;;;21.60;1.00;;;;;;5116335;27;20388;-82
2021/07/25 01:22:58;;;;;;;8.20;5.82;;;21.50;1.00;;;;;;5115138;27;20046;-82
2021/07/25 01:25:26;;;;;;;6.35;5.75;;;21.50;1.00;;;;;;5112249;27;20501;-82
2021/07/25 01:28:03;;;;;;;8.05;5.18;;;21.50;1.00;;;;;;5114492;27;20069;-82
2021/07/25 01:30:33;;;;;;;9.20;5.85;;;21.40;1.00;;;;;;5116843;27;20063;-82
2021/07/25 01:33:02;;;;;;;8.02;5.53;;;21.60;1.00;;;;;;5116707;27;20031;-82
2021/07/25 01:35:28;;;;;;;9.32;6.13;;;21.60;1.00;;;;;;5116179;27;20400;-82
2021/07/25 01:37:55;;;;;;;8.35;5.90;;;21.60;1.00;;;;;;5116054;27;20023;-82
2021/07/25 01:40:24;;;;;;;6.25;5.38;;;21.60;1.00;;;;;;5102701;27;20049;-82
2021/07/25 01:42:54;;;;;;;7.65;5.88;;;21.60;1.00;;;;;;5114529;27;20023;-82
2021/07/25 01:45:20;;;;;;;6.68;5.47;;;21.60;1.00;;;;;;5110719;27;20040;-82
2021/07/25 01:47:46;;;;;;;12.25;6.20;;;21.50;1.00;;;;;;5115873;27;20476;-82
2021/07/25 01:50:12;;;;;;;8.93;5.97;;;21.60;1.00;;;;;;5113644;27;20042;-82
2021/07/25 01:52:38;;;;;;;8.23;5.82;;;21.40;1.00;;;;;;5113875;27;20440;-82
2021/07/25 01:55:04;;;;;;;9.25;5.43;;;21.40;1.00;;;;;;5106893;27;20015;-82
2021/07/25 01:57:30;;;;;;;6.95;5.53;;;21.30;1.00;;;;;;5117150;27;20077;-82
2021/07/25 01:59:56;;;;;;;7.75;5.88;;;21.30;1.00;;;;;;5115029;27;20027;-82
2021/07/25 02:02:21;;;;;;;6.10;5.47;;;21.30;1.00;;;;;;5115602;27;20024;-82
2021/07/25 02:04:47;;;;;;;6.85;5.38;;;21.30;1.00;;;;;;5111363;27;20507;-82
2021/07/25 02:07:13;;;;;;;9.13;6.38;;;21.40;1.00;;;;;;5111743;27;20035;-82
2021/07/25 02:09:39;;;;;;;7.45;5.80;;;21.40;1.00;;;;;;5114812;27;20032;-82
2021/07/25 02:12:06;;;;;;;6.70;5.45;;;21.30;1.00;;;;;;5113758;27;20043;-82
2021/07/25 02:14:32;;;;;;;7.47;5.82;;;21.30;1.00;;;;;;5093913;28;20039;-82
2021/07/25 02:16:59;;;;;;;7.70;5.93;;;21.40;1.00;;;;;;5115245;27;20023;-82
2021/07/25 02:19:25;;;;;;;6.32;5.10;;;21.40;1.00;;;;;;5111598;27;20032;-82
2021/07/25 02:21:50;;;;;;;6.90;5.93;;;21.40;1.00;;;;;;5113112;27;20023;-82
2021/07/25 02:24:16;;;;;;;7.97;5.50;;;21.20;1.00;;;;;;5125540;27;20027;-82
2021/07/25 02:26:42;;;;;;;6.13;5.40;;;21.10;1.00;;;;;;5117568;27;20157;-82
2021/07/25 02:29:08;;;;;;;8.70;5.90;;;21.10;1.00;;;;;;5110933;27;20502;-82
2021/07/25 02:31:33;;;;;;;8.13;5.53;;;21.10;1.00;;;;;;5106886;27;20031;-82
2021/07/25 02:33:59;;;;;;;10.05;5.80;;;21.10;1.00;;;;;;5111150;28;20039;-82
2021/07/25 02:36:25;;;;;;;7.00;5.30;;;21.20;1.00;;;;;;5110953;28;20040;-82
2021/07/25 02:38:50;;;;;;;8.88;5.93;;;21.30;1.00;;;;;;5114461;27;20067;-81
2021/07/25 02:41:16;;;;;;;9.07;5.70;;;21.20;1.00;;;;;;5114789;27;20059;-82
2021/07/25 02:43:41;;;;;;;10.32;6.07;;;21.10;1.00;;;;;;5109849;27;20028;-82
2021/07/25 02:46:07;;;;;;;6.88;5.60;;;21.00;1.00;;;;;;5110704;28;20036;-82
2021/07/25 02:48:33;;;;;;;8.18;5.43;;;21.00;1.00;;;;;;5115009;27;20084;-82
2021/07/25 02:51:00;;;;;;;7.25;5.13;;;21.00;1.00;;;;;;5113387;27;20031;-82
2021/07/25 02:53:26;;;;;;;7.80;5.50;;;20.90;1.00;;;;;;5114307;27;20028;-82
2021/07/25 02:55:52;;;;;;;7.78;5.60;;;20.90;1.00;;;;;;5113940;27;20379;-82
2021/07/25 02:58:18;;;;;;;6.30;5.10;;;21.00;1.00;;;;;;5111186;28;20388;-82
2021/07/25 03:00:44;;;;;;;8.45;5.70;;;21.10;1.00;;;;;;5113577;27;20045;-82
2021/07/25 03:03:09;;;;;;;12.63;5.28;;;21.00;1.00;;;;;;5113189;28;20035;-82
2021/07/25 03:05:35;;;;;;;6.18;5.50;;;20.90;1.00;;;;;;5109571;28;20150;-82
2021/07/25 03:08:00;;;;;;;8.15;5.18;;;20.90;1.00;;;;;;5113166;27;20479;-82
2021/07/25 03:10:26;;;;;;;7.88;5.40;;;20.90;1.00;;;;;;5109766;27;20031;-82
2021/07/25 03:12:52;;;;;;;8.52;5.68;;;20.90;1.00;;;;;;5111250;27;20048;-82
2021/07/25 03:15:18;;;;;;;6.40;5.25;;;21.00;1.00;;;;;;5110893;28;20062;-82
2021/07/25 03:17:43;;;;;;;7.93;4.90;;;20.90;1.00;;;;;;5114771;27;20035;-82
2021/07/25 03:20:10;;;;;;;7.75;5.13;;;20.90;1.00;;;;;;5113170;28;20032;-82
2021/07/25 03:22:35;;;;;;;5.85;5.25;;;20.90;1.00;;;;;;5113063;28;20394;-82
2021/07/25 03:25:02;;;;;;;6.53;5.22;;;20.90;1.00;;;;;;5109673;28;20111;-82
2021/07/25 03:27:28;;;;;;;8.45;5.90;;;20.90;1.00;;;;;;5115701;28;20063;-82
2021/07/25 03:29:54;;;;;;;12.98;4.90;;;20.80;1.00;;;;;;5111027;28;20039;-82
2021/07/25 03:32:20;;;;;;;9.10;5.07;;;20.90;1.00;;;;;;5114272;28;20043;-82
2021/07/25 03:34:46;;;;;;;9.45;5.20;;;20.80;1.00;;;;;;5108361;28;20026;-82
2021/07/25 03:37:12;;;;;;;5.88;5.20;;;20.70;1.00;;;;;;5109961;28;20721;-82
2021/07/25 03:39:38;;;;;;;10.30;5.28;;;20.70;1.00;;;;;;5115199;28;20023;-82
2021/07/25 03:42:04;;;;;;;8.02;5.55;;;20.70;1.00;;;;;;5114566;28;20078;-82
2021/07/25 03:44:30;;;;;;;7.32;5.70;;;20.60;1.00;;;;;;5109161;28;20031;-82
2021/07/25 03:46:56;;;;;;;5.90;5.00;;;20.60;1.00;;;;;;5116881;27;20019;-82
2021/07/25 03:49:21;;;;;;;7.10;5.57;;;20.60;1.00;;;;;;5112046;27;20031;-82
2021/07/25 03:51:47;;;;;;;8.65;5.05;;;20.60;1.00;;;;;;5118528;27;20093;-82
2021/07/25 03:54:13;;;;;;;6.05;5.35;;;20.50;1.00;;;;;;5116515;27;20134;-82
2021/07/25 03:56:40;;;;;;;9.30;6.03;;;20.50;1.00;;;;;;5118224;27;20024;-82
2021/07/25 03:59:06;;;;;;;7.95;5.88;;;20.60;1.00;;;;;;5113213;27;20065;-82
2021/07/25 04:01:31;;;;;;;6.32;5.15;;;20.80;1.00;;;;;;5115533;27;20447;-82
2021/07/25 04:03:57;;;;;;;8.45;6.20;;;20.80;1.00;;;;;;5115351;27;20072;-82
2021/07/25 04:06:23;;;;;;;9.32;5.55;;;20.70;1.00;;;;;;5117357;27;20483;-82
2021/07/25 04:08:48;;;;;;;6.07;5.03;;;20.70;1.00;;;;;;5116331;27;20019;-82
2021/07/25 04:11:21;;;;;;;9.45;5.50;;;20.80;1.00;;;;;;5117805;27;20491;-82
2021/07/25 04:13:48;;;;;;;6.55;5.85;;;20.80;1.00;;;;;;5101464;28;20047;-82
2021/07/25 04:16:13;;;;;;;10.38;6.32;;;20.90;1.00;;;;;;5113946;28;20475;-82
2021/07/25 04:18:39;;;;;;;6.88;5.57;;;20.90;1.00;;;;;;5118909;27;20059;-82
2021/07/25 04:21:05;;;;;;;7.60;5.70;;;20.90;1.00;;;;;;5116979;27;20114;-82
2021/07/25 04:23:30;;;;;;;7.47;5.50;;;20.80;1.00;;;;;;5097784;28;20081;-82
2021/07/25 04:25:56;;;;;;;6.53;5.28;;;20.80;1.00;;;;;;5113830;27;20452;-82
2021/07/25 04:28:22;;;;;;;7.05;6.32;;;20.80;1.00;;;;;;5113227;27;20042;-82
2021/07/25 04:30:48;;;;;;;8.00;6.10;;;20.80;1.00;;;;;;5114493;27;20126;-82
2021/07/25 04:33:16;;;;;;;7.00;5.40;;;20.80;1.00;;;;;;5118217;27;20103;-82
2021/07/25 04:35:42;;;;;;;8.65;6.30;;;20.90;1.00;;;;;;5113477;27;20032;-82
2021/07/25 04:38:08;;;;;;;7.68;5.68;;;20.90;1.00;;;;;;5115681;27;20031;-81
2021/07/25 04:40:35;;;;;;;5.97;5.20;;;21.00;1.00;;;;;;5114356;27;20024;-82
2021/07/25 04:43:03;;;;;;;8.30;5.90;;;20.90;1.00;;;;;;5114248;27;20027;-82
2021/07/25 04:45:33;;;;;;;6.72;5.53;;;20.90;1.00;;;;;;5097690;28;20413;-82
2021/07/25 04:48:07;;;;;;;7.13;5.57;;;20.80;1.00;;;;;;5116628;27;20124;-83
2021/07/25 04:50:41;;;;;;;6.72;5.30;;;20.90;1.00;;;;;;5117600;27;20039;-82
2021/07/25 04:53:27;;;;;;;6.03;5.43;;;20.90;1.00;;;;;;5126076;27;20032;-82
2021/07/25 04:56:01;;;;;;;8.20;5.63;;;20.80;1.00;;;;;;5115843;27;20026;-82
2021/07/25 04:58:44;;;;;;;6.60;5.90;;;20.80;1.00;;;;;;5111835;28;20358;-82
2021/07/25 05:01:14;;;;;;;8.95;5.72;;;20.90;1.00;;;;;;5108831;28;20024;-82
2021/07/25 05:03:40;;;;;;;8.88;5.85;;;21.00;1.00;;;;;;5111733;28;20031;-82
2021/07/25 05:06:09;;;;;;;7.38;5.65;;;21.00;1.00;;;;;;5115389;27;20487;-82
2021/07/25 05:08:36;;;;;;;6.32;5.70;;;21.00;1.00;;;;;;5116591;27;20027;-82
2021/07/25 05:11:21;;;;;;;7.13;5.55;;;20.90;1.00;;;;;;5116508;27;20031;-82
2021/07/25 05:13:49;;;;;;;9.23;5.65;;;20.90;1.00;;;;;;5102503;27;20050;-82
2021/07/25 05:16:26;;;;;;;6.38;5.78;;;20.90;1.00;;;;;;5110936;27;20096;-83
2021/07/25 05:19:03;;;;;;;7.35;5.68;;;20.90;1.00;;;;;;5115065;27;20077;-82
2021/07/25 05:21:33;;;;;;;6.88;5.93;;;20.90;1.00;;;;;;5114804;27;20028;-82
2021/07/25 05:24:02;;;;;;;9.20;5.38;;;21.10;1.00;;;;;;5116743;27;20034;-83
2021/07/25 05:26:28;;;;;;;7.57;5.55;;;21.20;1.00;;;;;;5114085;27;20024;-82
2021/07/25 05:28:56;;;;;;;9.55;6.03;;;21.00;1.00;;;;;;5110688;27;20023;-82
2021/07/25 05:31:30;;;;;;;8.30;5.80;;;21.10;1.00;;;;;;5112818;27;20110;-82
2021/07/25 05:33:56;;;;;;;6.05;5.45;;;21.20;1.00;;;;;;5113963;27;20020;-82
2021/07/25 05:36:21;;;;;;;8.20;5.47;;;21.30;1.00;;;;;;5110311;28;20041;-83
2021/07/25 05:38:47;;;;;;;9.93;6.20;;;21.30;1.00;;;;;;5114816;27;20024;-82
2021/07/25 05:41:12;;;;;;;8.95;6.15;;;21.20;1.00;;;;;;5116565;27;20019;-82
2021/07/25 05:43:38;;;;;;;6.75;5.32;;;21.20;1.00;;;;;;5109852;27;20023;-82
2021/07/25 05:46:03;;;;;;;7.38;5.65;;;21.30;1.00;;;;;;5110773;28;20050;-82
2021/07/25 05:48:29;;;;;;;9.75;5.80;;;21.30;1.00;;;;;;5115897;27;20399;-82
2021/07/25 05:50:55;;;;;;;6.40;5.72;;;21.30;1.00;;;;;;5115867;27;20031;-82
2021/07/25 05:53:21;;;;;;;6.93;5.60;;;21.30;1.00;;;;;;5115015;27;20035;-82
2021/07/25 05:55:46;;;;;;;10.13;6.18;;;21.30;1.00;;;;;;5108666;27;20038;-82
2021/07/25 05:58:12;;;;;;;7.65;6.03;;;21.30;1.00;;;;;;5112093;28;20024;-82
2021/07/25 06:00:37;;;;;;;10.70;6.28;;;21.30;1.00;;;;;;5109937;28;20464;-83
2021/07/25 06:03:04;;;;;;;8.30;5.50;;;21.30;1.00;;;;;;5115758;27;20036;-82
2021/07/25 06:05:32;;;;;;;8.80;5.85;;;21.40;1.00;;;;;;5115995;27;20061;-82
2021/07/25 06:08:00;;;;;;;6.78;5.55;;;21.50;1.00;;;;;;5126035;27;20023;-84
2021/07/25 06:10:28;;;;;;;6.57;5.60;;;21.70;1.00;;;;;;5111896;27;20091;-83
2021/07/25 06:12:56;;;;;;;6.32;5.40;;;21.80;1.00;;;;;;5111347;27;20100;-84
2021/07/25 06:15:23;;;;;;;10.05;5.80;;;21.80;1.00;;;;;;5113439;27;20092;-83
2021/07/25 06:17:49;;;;;;;6.85;5.70;;;21.80;1.00;;;;;;5115112;27;20036;-83
2021/07/25 06:20:15;;;;;;;7.93;5.68;;;21.90;1.00;;;;;;5108368;27;20483;-84
2021/07/25 06:22:46;;;;;;;8.55;6.30;;;21.90;1.00;;;;;;5113931;27;20029;-84
2021/07/25 06:25:14;;;;;;;8.60;5.82;;;21.90;1.00;;;;;;5096275;28;20095;-83
2021/07/25 06:27:40;;;;;;;8.32;6.32;;;22.00;1.00;;;;;;5120971;27;20034;-85
2021/07/25 06:30:09;;;;;;;7.43;5.68;;;22.20;1.00;;;;;;5112680;27;20430;-83
2021/07/25 06:33:00;;;;;;;7.80;5.40;;;22.20;1.00;;;;;;5115509;27;20389;-82
2021/07/25 06:35:39;;;;;;;7.97;5.40;;;22.20;1.00;;;;;;5096118;28;20036;-82
2021/07/25 06:38:08;;;;;;;7.70;5.90;;;22.10;1.00;;;;;;5115265;27;20440;-82
2021/07/25 06:40:34;;;;;;;9.30;5.85;;;22.10;1.00;;;;;;5110637;27;20208;-85
2021/07/25 06:43:02;;;;;;;7.72;5.72;;;22.10;1.00;;;;;;5113941;27;20076;-87
2021/07/25 06:45:29;;;;;;;9.35;5.82;;;22.30;1.00;;;;;;5114674;27;20476;-82
2021/07/25 06:47:55;;;;;;;7.18;5.50;;;22.50;1.00;;;;;;5114778;27;20399;-84
2021/07/25 06:50:23;;;;;;;7.50;5.38;;;22.60;1.00;;;;;;5109685;27;20038;-83
2021/07/25 06:52:51;;;;;;;8.77;5.60;;;22.60;1.00;;;;;;5114748;28;20495;-82
2021/07/25 06:55:22;;;;;;;10.10;5.80;;;22.70;1.00;;;;;;5109737;27;20051;-86
2021/07/25 06:57:48;;;;;;;7.20;5.97;;;22.70;1.00;;;;;;5114860;27;20111;-82
2021/07/25 07:00:14;;;;;;;7.82;5.35;;;22.90;1.00;;;;;;5110514;27;20098;-82
2021/07/25 07:02:54;;;;;;;7.03;5.22;;;23.00;1.00;;;;;;5112865;27;20027;-81
2021/07/25 07:05:21;;;;;;;8.00;5.38;;;23.30;1.00;;;;;;5093019;28;20042;-82
2021/07/25 07:07:49;;;;;;;6.95;4.78;;;23.30;1.00;;;;;;5113107;27;20054;-82
2021/07/25 07:10:17;;;;;;;6.38;5.70;;;23.60;1.00;;;;;;5110009;28;20507;-82
2021/07/25 07:12:44;;;;;;;6.97;4.57;;;23.60;1.00;;;;;;5114461;28;20062;-84
2021/07/25 07:15:11;;;;;;;10.15;5.30;;;23.70;99.90;;;;;;5110038;27;20038;-84
2021/07/25 07:17:38;;;;;;;5.20;4.05;;;23.70;99.90;;;;;;5109464;27;20586;-84
2021/07/25 07:20:07;;;;;;;6.07;5.15;;;23.30;99.90;;;;;;5113325;27;20083;-84
2021/07/25 07:22:33;;;;;;;8.15;4.88;;;23.20;99.90;;;;;;5112867;28;20031;-84
2021/07/25 07:24:59;;;;;;;5.68;5.05;;;23.20;99.90;;;;;;5111666;28;20090;-84
2021/07/25 07:27:26;;;;;;;7.35;5.03;;;23.20;99.90;;;;;;5117338;28;20023;-89
2021/07/25 07:29:52;;;;;;;5.80;5.13;;;23.20;99.90;;;;;;5112444;28;20027;-83
2021/07/25 07:32:18;;;;;;;6.03;5.07;;;23.40;99.90;;;;;;5090987;28;20053;-84
2021/07/25 07:34:43;;;;;;;6.70;5.00;;;23.40;99.90;;;;;;5109028;28;20016;-85
2021/07/25 07:37:09;;;;;;;5.75;5.15;;;23.10;99.90;;;;;;5110541;28;20031;-85
2021/07/25 07:39:36;;;;;;;6.80;4.85;;;23.10;99.90;;;;;;5113995;28;20430;-82
2021/07/25 07:42:03;;;;;;;6.53;4.82;;;23.00;1.00;;;;;;5104248;28;20031;-83
2021/07/25 07:44:29;;;;;;;5.75;5.13;;;23.00;1.00;;;;;;5108851;28;20149;-83
2021/07/25 07:46:54;;;;;;;6.95;5.68;;;23.00;99.90;;;;;;5108686;28;20118;-82
2021/07/25 07:49:20;;;;;;;7.07;5.90;;;23.00;1.00;;;;;;5107291;28;20024;-82
2021/07/25 07:51:46;;;;;;;7.03;5.85;;;23.10;1.00;;;;;;5107845;28;20403;-83
2021/07/25 07:54:11;;;;;;;8.02;5.70;;;23.20;1.00;;;;;;5105041;28;20400;-84
2021/07/25 07:56:37;;;;;;;8.25;6.18;;;23.10;99.90;;;;;;5103159;28;20063;-84
2021/07/25 07:59:03;;;;;;;7.43;5.95;;;23.10;1.00;;;;;;5113848;28;20360;-84
2021/07/25 08:01:29;;;;;;;6.63;5.35;;;23.40;99.90;;;;;;5109297;28;20099;-84
2021/07/25 08:03:54;;;;;;;7.78;6.45;;;23.90;99.90;;;;;;5122434;28;20023;-84
2021/07/25 08:06:20;;;;;;;8.23;6.07;;;23.70;99.90;;;;;;5107444;28;20045;-82
2021/07/25 08:08:46;;;;;;;7.50;5.85;;;24.00;99.90;;;;;;5104835;28;20023;-83
2021/07/25 08:11:11;;;;;;;9.85;6.63;;;24.10;99.90;;;;;;5104254;28;20062;-83
2021/07/25 08:13:37;;;;;;;7.00;5.47;;;24.10;99.90;;;;;;5108209;28;20123;-82
2021/07/25 08:16:03;;;;;;;8.23;5.88;;;24.10;99.90;;;;;;5105232;28;20412;-82
2021/07/25 08:18:29;;;;;;;6.10;5.47;;;24.50;99.90;;;;;;5108819;28;20059;-83
2021/07/25 08:20:54;;;;;;;6.93;5.18;;;24.50;99.90;;;;;;5104281;28;20049;-85
2021/07/25 08:23:20;;;;;;;9.93;5.63;;;24.60;99.90;;;;;;5105876;28;20032;-84
2021/07/25 08:25:46;;;;;;;8.02;5.80;;;24.60;99.90;;;;;;5104698;28;20385;-84
2021/07/25 08:28:12;;;;;;;8.00;5.72;;;24.80;99.90;;;;;;5106002;28;20027;-85
2021/07/25 08:30:39;;;;;;;8.25;5.15;;;24.70;99.90;;;;;;5106881;28;20027;-85
2021/07/25 08:33:06;;;;;;;6.03;4.85;;;25.00;99.90;;;;;;5109741;27;20023;-83
2021/07/25 08:35:32;;;;;;;7.88;5.00;;;25.20;99.90;;;;;;5109509;28;20078;-83
2021/07/25 08:37:58;;;;;;;6.40;5.60;;;25.50;99.90;;;;;;5115019;27;20019;-85
2021/07/25 08:40:25;;;;;;;5.93;5.30;;;25.70;99.90;;;;;;5113312;27;20032;-85
2021/07/25 08:43:13;;;;;;;7.07;5.15;;;26.00;99.90;;;;;;5116919;27;20054;-84
2021/07/25 08:45:41;;;;;;;6.80;4.57;;;26.30;99.90;;;;;;5111610;28;20035;-85
2021/07/25 08:48:14;;;;;;;6.57;4.85;;;26.20;99.90;;;;;;5099376;28;20484;-85
2021/07/25 08:50:44;;;;;;;6.43;4.80;;;26.30;99.90;;;;;;5116672;27;20118;-84
2021/07/25 08:53:15;;;;;;;6.25;5.03;;;26.10;99.90;;;;;;5117058;27;20036;-84
2021/07/25 08:55:40;;;;;;;7.32;4.95;;;26.50;99.90;;;;;;5116321;27;20058;-84
2021/07/25 08:58:09;;;;;;;5.80;5.20;;;26.50;99.90;;;;;;5112660;27;20504;-84
2021/07/25 09:00:35;;;;;;;9.20;5.78;;;26.30;99.90;;;;;;5112733;28;20039;-84
2021/07/25 09:03:06;;;;;;;12.50;8.65;;;26.40;99.90;;;;;;5115492;27;20394;-85
2021/07/25 09:05:32;;;;;;;7.60;5.07;;;26.80;99.90;;;;;;5117162;27;20102;-85
2021/07/25 09:07:58;;;;;;;7.07;5.18;;;27.10;99.90;;;;;;5116688;27;20075;-85
2021/07/25 09:10:24;;;;;;;6.30;5.00;;;27.00;99.90;;;;;;5113313;27;20028;-84
2021/07/25 09:12:52;;;;;;;5.70;5.07;;;26.90;99.90;;;;;;5116658;27;20146;-85
2021/07/25 09:15:22;;;;;;;7.38;5.00;;;26.70;99.90;;;;;;5115398;27;20081;-85
2021/07/25 09:17:48;;;;;;;6.60;5.10;;;26.50;99.90;;;;;;5116684;27;20035;-85
2021/07/25 09:20:31;;;;;;;5.65;4.78;;;26.40;99.90;;;;;;5113424;27;20365;-85
2021/07/25 09:23:11;;;;;;;5.65;4.35;;;26.60;99.90;;;;;;5116350;27;20019;-84
2021/07/25 09:25:42;;;;;;;6.63;4.85;;;26.60;99.90;;;;;;5114972;27;20023;-85
2021/07/25 09:28:12;;;;;;;7.07;5.00;;;27.00;99.90;;;;;;5112329;27;20031;-84
2021/07/25 09:30:39;;;;;;;6.45;4.22;;;27.50;99.90;;;;;;5113466;28;20031;-84
2021/07/25 09:33:24;;;;;;;5.53;4.47;;;28.10;99.90;;;;;;5116317;27;20032;-85
2021/07/25 09:35:50;;;;;;;7.22;4.72;;;28.50;99.90;;;;;;5113884;27;20068;-85
2021/07/25 09:38:17;;;;;;;4.68;4.28;;;28.40;99.90;;;;;;5115528;27;20492;-84
2021/07/25 09:40:44;;;;;;;6.90;3.90;;;27.90;99.90;;;;;;5126307;27;20031;-85
2021/07/25 09:43:12;;;;;;;5.43;4.55;;;27.60;99.90;;;;;;5110986;28;20031;-85
2021/07/25 09:45:49;;;;;;;6.03;4.30;;;27.40;99.90;;;;;;5117956;27;20031;-85
2021/07/25 09:48:15;;;;;;;5.50;4.35;;;27.30;99.90;;;;;;5115535;27;20035;-85
2021/07/25 09:50:41;;;;;;;6.30;4.50;;;27.20;99.90;;;;;;5115808;27;20031;-85
2021/07/25 09:53:07;;;;;;;4.80;4.00;;;27.20;99.90;;;;;;5113381;27;20044;-84
2021/07/25 09:55:32;;;;;;;5.13;3.90;;;27.40;99.90;;;;;;5113965;27;20106;-85
2021/07/25 09:57:58;;;;;;;6.18;4.38;;;27.80;99.90;;;;;;5111626;27;20484;-85
2021/07/25 10:00:44;;;;;;;4.85;4.45;;;27.50;99.90;;;;;;5117925;27;20020;-85
2021/07/25 10:03:18;;;;;;;7.22;4.85;;;27.50;99.90;;;;;;5116345;27;20028;-85
2021/07/25 10:05:44;;;;;;;6.55;4.40;;;27.90;99.90;;;;;;5114740;27;20028;-84
2021/07/25 10:08:18;;;;;;;5.35;4.75;;;28.00;99.90;;;;;;5114844;27;20030;-84
2021/07/25 10:10:55;;;;;;;6.07;4.78;;;27.60;99.90;;;;;;5115209;27;20031;-85
2021/07/25 10:13:23;;;;;;;4.60;4.10;;;27.30;99.90;;;;;;5095552;27;20512;-85
2021/07/25 10:15:58;;;;;;;4.80;4.30;;;27.10;99.90;;;;;;5115390;27;20028;-85
2021/07/25 10:18:25;;;;;;;6.25;5.00;;;27.30;99.90;;;;;;5115755;27;20034;-85
2021/07/25 10:20:55;;;;;;;4.50;4.10;;;27.40;99.90;;;;;;5112793;27;20026;-85
2021/07/25 10:23:27;;;;;;;5.10;4.35;;;27.50;99.90;;;;;;5114043;27;20088;-85
2021/07/25 10:25:56;;;;;;;4.80;4.30;;;27.70;99.90;;;;;;5115180;27;20023;-85
2021/07/25 10:28:22;;;;;;;6.63;4.70;;;27.70;99.90;;;;;;5110153;27;20099;-85
2021/07/25 10:30:51;;;;;;;5.85;5.20;;;28.20;99.90;;;;;;5115597;27;20081;-85
2021/07/25 10:33:18;;;;;;;5.97;4.53;;;28.60;99.90;;;;;;5114765;27;20563;-85
2021/07/25 10:35:45;;;;;;;9.05;7.38;;;29.20;99.90;;;;;;5111668;27;20449;-85
2021/07/25 10:38:11;;;;;;;7.60;5.68;;;30.20;99.90;;;;;;5114943;27;20081;-85
2021/07/25 10:40:39;;;;;;;6.55;4.85;;;30.30;99.90;;;;;;5113999;27;20027;-84
2021/07/25 10:43:07;;;;;;;5.70;4.63;;;30.70;99.90;;;;;;5111515;27;20542;-84
2021/07/25 10:45:34;;;;;;;6.55;4.80;;;30.40;99.90;;;;;;5117297;27;20039;-84
2021/07/25 10:48:25;;;;;;;5.25;4.75;;;30.20;99.90;;;;;;5114153;27;20028;-84
2021/07/25 10:51:10;;;;;;;6.28;4.78;;;29.90;99.90;;;;;;5111719;27;20040;-84
2021/07/25 10:53:36;;;;;;;6.75;4.82;;;29.60;99.90;;;;;;5114120;27;20381;-84
2021/07/25 10:56:01;;;;;;;5.35;4.85;;;29.40;99.90;;;;;;5110418;28;20038;-84
2021/07/25 10:58:27;;;;;;;7.03;5.07;;;29.40;99.90;;;;;;5110338;27;20028;-84
2021/07/25 11:00:56;;;;;;;5.10;4.60;;;29.20;99.90;;;;;;5110651;27;20034;-84
2021/07/25 11:03:25;;;;;;;6.03;4.68;;;28.90;99.90;;;;;;5105586;28;20069;-84
2021/07/25 11:06:05;;;;;;;5.75;4.88;;;28.50;99.90;;;;;;5106338;27;20027;-84
2021/07/25 11:08:31;;;;;;;5.93;4.68;;;29.20;99.90;;;;;;5105095;28;20016;-86
2021/07/25 11:10:56;;;;;;;4.78;4.28;;;29.80;99.90;;;;;;5108919;28;20034;-83
2021/07/25 11:13:41;;;;;;;6.03;4.60;;;30.00;99.90;;;;;;5090736;28;20104;-83
2021/07/25 11:16:31;;;;;;;4.82;4.40;;;30.20;99.90;;;;;;5108458;27;20162;-84
2021/07/25 11:19:17;;;;;;;5.72;5.00;;;29.90;99.90;;;;;;5105312;28;20027;-83
2021/07/25 11:21:47;;;;;;;5.97;5.35;;;29.80;99.90;;;;;;5042212;28;20041;-83
2021/07/25 11:24:19;;;;;;;6.18;4.63;;;30.20;99.90;;;;;;5050010;28;20041;-83
2021/07/25 11:26:54;;;;;;;7.18;4.90;;;30.70;99.90;;;;;;5041969;28;20124;-82
2021/07/25 11:29:23;;;;;;;5.10;4.50;;;31.30;99.90;;;;;;5047453;28;20039;-82
2021/07/25 11:31:50;;;;;;;5.15;4.50;;;31.10;99.90;;;;;;5043647;28;20036;-83
2021/07/25 11:34:31;;;;;;;6.03;4.10;;;31.40;99.90;;;;;;5047824;28;20405;-82
2021/07/25 11:37:06;;;;;;;4.38;3.30;;;32.10;99.90;;;;;;5050710;28;20029;-82
2021/07/25 11:39:32;;;;;;;4.07;3.67;;;32.40;99.90;;;;;;5059912;28;20032;-82
2021/07/25 11:42:03;;;;;;;3.70;3.40;;;34.10;99.90;;;;;;5053336;28;20036;-82
2021/07/25 11:44:30;;;;;;;4.40;3.53;;;36.00;99.90;;;;;;5052481;28;20029;-82
2021/07/25 11:46:57;;;;;;;4.05;3.63;;;38.30;99.90;;;;;;5052345;28;20385;-82
2021/07/25 11:49:26;;;;;;;4.05;3.63;;;40.00;99.90;;;;;;5048903;28;20102;-82
2021/07/25 11:51:57;;;;;;;3.60;3.30;;;40.70;99.90;;;;;;5051153;28;20055;-83
2021/07/25 11:54:34;;;;;;;4.40;3.58;;;41.40;99.90;;;;;;5053156;28;20342;-82
2021/07/25 11:57:01;;;;;;;4.20;3.80;;;42.40;99.90;;;;;;5048660;28;20037;-83
2021/07/25 11:59:28;;;;;;;4.88;3.72;;;41.90;99.90;;;;;;5099144;28;20411;-83
2021/07/25 12:01:54;;;;;;;3.97;3.47;;;43.20;99.90;;;;;;5113628;28;20026;-83
2021/07/25 12:04:31;;;;;;;4.22;3.83;;;41.30;99.90;;;;;;5109358;28;20415;-83
2021/07/25 12:07:02;;;;;;;4.97;3.75;;;38.50;99.90;;;;;;5107442;28;20024;-83
2021/07/25 12:09:28;;;;;;;5.13;3.63;;;35.50;99.90;;;;;;5112948;27;20050;-83
2021/07/25 12:12:21;;;;;;;4.60;3.83;;;38.70;99.90;;;;;;5110659;27;20036;-82
2021/07/25 12:14:51;;;;;;;3.80;3.50;;;39.70;99.90;;;;;;5113295;27;20043;-86
2021/07/25 12:17:47;;;;;;;4.43;3.78;;;40.70;99.90;;;;;;5111772;28;20046;-83
2021/07/25 12:20:29;;;;;;;5.55;3.88;;;40.90;99.90;;;;;;5114824;27;20034;-83
2021/07/25 12:23:09;;;;;;;4.10;3.20;;;39.10;99.90;;;;;;5114465;27;20023;-83
2021/07/25 12:25:47;;;;;;;4.07;3.20;;;39.90;99.90;;;;;;5128929;27;20452;-83
2021/07/25 12:28:14;;;;;;;4.35;3.30;;;41.30;99.90;;;;;;5112589;28;20512;-84
2021/07/25 12:30:48;;;;;;;5.13;3.35;;;40.70;99.90;;;;;;5109332;27;20063;-84
2021/07/25 12:33:25;;;;;;;4.00;3.60;;;40.30;99.90;;;;;;5109269;27;20070;-84
2021/07/25 12:35:51;;;;;;;5.55;3.88;;;40.00;99.90;;;;;;5114571;27;20055;-84
2021/07/25 12:38:20;;;;;;;3.80;3.40;;;40.50;99.90;;;;;;5119880;27;20031;-84
2021/07/25 12:40:54;;;;;;;4.90;3.78;;;40.20;99.90;;;;;;5127791;27;20536;-84
2021/07/25 12:43:24;;;;;;;4.82;3.40;;;40.80;99.90;;;;;;5098000;27;20047;-84
2021/07/25 12:45:51;;;;;;;4.10;3.50;;;41.40;99.90;;;;;;5117228;27;20023;-84
2021/07/25 12:48:20;;;;;;;3.78;3.47;;;42.30;99.90;;;;;;5117987;27;20484;-84
2021/07/25 12:50:46;;;;;;;3.78;3.33;;;42.40;99.90;;;;;;5116646;27;20500;-84
2021/07/25 12:53:19;;;;;;;3.88;3.55;;;42.80;99.90;;;;;;5113242;27;20057;-87
2021/07/25 12:55:49;;;;;;;3.28;3.03;;;43.30;99.90;;;;;;5115555;27;20026;-87
2021/07/25 12:58:15;;;;;;;3.78;3.47;;;42.00;99.90;;;;;;5096547;28;20702;-86
2021/07/25 13:03:44;;;;;;;3.13;2.92;;;42.40;99.90;;;;;;5118252;27;20028;-89